TimeCDT,TemperatureF,Dew PointF,Humidity,Sea Level PressureIn,VisibilityMPH,Wind Direction,Wind SpeedMPH,Gust SpeedMPH,PrecipitationIn,Events,Conditions,WindDirDegrees,DateUTC
12:15 AM,55.2,50.7,85,30.06,10.0,ESE,3.5,-,N/A,,Clear,120,2013-10-11 05:15:00
12:35 AM,54.0,50.2,87,30.07,10.0,ESE,3.5,-,N/A,,Clear,120,2013-10-11 05:35:00
12:55 AM,53.6,50.0,88,30.07,10.0,ESE,4.6,-,N/A,,Clear,110,2013-10-11 05:55:00
1:15 AM,54.5,50.2,85,30.07,10.0,ESE,4.6,-,N/A,,Clear,120,2013-10-11 06:15:00
1:55 AM,51.8,49.1,90,30.07,10.0,ESE,3.5,-,N/A,,Clear,120,2013-10-11 06:55:00
2:15 AM,51.1,48.7,92,30.07,10.0,ESE,3.5,-,N/A,,Clear,110,2013-10-11 07:15:00
2:35 AM,50.0,48.2,94,30.07,10.0,ESE,3.5,-,N/A,,Clear,110,2013-10-11 07:35:00
2:55 AM,50.5,48.2,92,30.07,10.0,ESE,3.5,-,N/A,,Clear,110,2013-10-11 07:55:00
3:15 AM,49.8,48.0,94,30.06,7.0,ESE,4.6,-,N/A,,Clear,110,2013-10-11 08:15:00
3:35 AM,51.3,48.6,90,30.07,10.0,East,4.6,-,N/A,,Clear,100,2013-10-11 08:35:00
3:55 AM,49.1,47.5,94,30.07,7.0,East,3.5,-,N/A,,Clear,100,2013-10-11 08:55:00
4:15 AM,50.5,48.4,92,30.07,10.0,ESE,4.6,-,N/A,,Clear,110,2013-10-11 09:15:00
4:35 AM,50.4,48.0,92,30.08,10.0,Calm,Calm,-,N/A,,Clear,0,2013-10-11 09:35:00
4:55 AM,50.4,48.2,92,30.09,10.0,Calm,Calm,-,N/A,,Mostly Cloudy,0,2013-10-11 09:55:00
5:15 AM,50.4,48.4,93,30.09,7.0,East,3.5,-,N/A,,Overcast,100,2013-10-11 10:15:00
5:35 AM,50.5,48.6,93,30.10,7.0,ESE,4.6,-,N/A,,Overcast,110,2013-10-11 10:35:00
5:55 AM,52.3,49.1,89,30.10,10.0,ESE,3.5,-,N/A,,Overcast,110,2013-10-11 10:55:00
6:15 AM,52.7,49.1,88,30.10,10.0,ESE,3.5,-,N/A,,Overcast,120,2013-10-11 11:15:00
6:35 AM,52.7,49.1,88,30.10,10.0,Calm,Calm,-,N/A,,Overcast,0,2013-10-11 11:35:00
6:55 AM,52.3,49.3,89,30.10,10.0,ESE,5.8,-,N/A,,Mostly Cloudy,110,2013-10-11 11:55:00
7:15 AM,53.2,49.3,86,30.10,10.0,ESE,6.9,-,N/A,,Scattered Clouds,110,2013-10-11 12:15:00
7:35 AM,53.8,49.1,84,30.09,10.0,ESE,8.1,-,N/A,,Scattered Clouds,110,2013-10-11 12:35:00
7:55 AM,53.6,49.1,85,30.09,10.0,ESE,6.9,-,N/A,,Mostly Cloudy,120,2013-10-11 12:55:00
8:15 AM,55.0,50.0,83,30.09,10.0,ESE,5.8,-,N/A,,Scattered Clouds,110,2013-10-11 13:15:00
8:35 AM,57.0,51.3,81,30.09,10.0,ESE,5.8,-,N/A,,Clear,110,2013-10-11 13:35:00
8:55 AM,59.5,52.3,77,30.09,10.0,ESE,5.8,-,N/A,,Clear,120,2013-10-11 13:55:00
9:15 AM,62.1,53.6,74,30.09,10.0,SE,4.6,-,N/A,,Clear,130,2013-10-11 14:15:00
9:35 AM,64.4,54.1,69,30.09,10.0,SE,5.8,-,N/A,,Clear,140,2013-10-11 14:35:00
9:55 AM,67.5,55.2,65,30.09,10.0,SSE,5.8,-,N/A,,Clear,160,2013-10-11 14:55:00
10:15 AM,69.1,55.8,62,30.09,10.0,SSE,5.8,-,N/A,,Clear,160,2013-10-11 15:15:00
10:35 AM,70.9,55.8,59,30.09,10.0,South,8.1,-,N/A,,Clear,190,2013-10-11 15:35:00
10:55 AM,72.0,55.4,56,30.09,10.0,South,8.1,-,N/A,,Clear,180,2013-10-11 15:55:00
11:15 AM,73.2,54.3,51,30.08,10.0,SSE,9.2,-,N/A,,Clear,150,2013-10-11 16:15:00
11:35 AM,73.6,54.0,50,30.08,10.0,SE,9.2,-,N/A,,Clear,140,2013-10-11 16:35:00
11:55 AM,73.0,53.6,50,30.08,10.0,South,5.8,-,N/A,,Clear,170,2013-10-11 16:55:00
12:15 PM,74.8,54.5,49,30.07,10.0,South,11.5,-,N/A,,Mostly Cloudy,170,2013-10-11 17:15:00
12:35 PM,74.1,54.1,50,30.06,10.0,SE,6.9,-,N/A,,Scattered Clouds,130,2013-10-11 17:35:00
12:55 PM,74.8,53.8,48,30.05,10.0,ESE,12.7,16.1,N/A,,Scattered Clouds,120,2013-10-11 17:55:00
1:15 PM,75.9,54.1,47,30.04,10.0,SSE,5.8,-,N/A,,Scattered Clouds,160,2013-10-11 18:15:00
1:35 PM,74.7,52.9,46,30.03,10.0,SSE,4.6,9.2,N/A,,Scattered Clouds,160,2013-10-11 18:35:00
1:55 PM,76.5,53.6,45,30.02,10.0,SE,12.7,-,N/A,,Scattered Clouds,140,2013-10-11 18:55:00
2:15 PM,76.3,53.1,44,30.02,10.0,SSE,11.5,-,N/A,,Scattered Clouds,150,2013-10-11 19:15:00
2:35 PM,75.9,52.9,45,30.01,10.0,SE,10.4,-,N/A,,Clear,140,2013-10-11 19:35:00
2:55 PM,77.0,52.9,43,30.01,10.0,SE,10.4,17.3,N/A,,Scattered Clouds,140,2013-10-11 19:55:00
3:15 PM,77.0,53.4,44,30.00,10.0,SSW,8.1,-,N/A,,Scattered Clouds,200,2013-10-11 20:15:00
3:35 PM,77.0,52.7,43,30.00,10.0,South,9.2,-,N/A,,Scattered Clouds,170,2013-10-11 20:35:00
3:55 PM,76.5,52.7,43,30.00,10.0,SE,9.2,-,N/A,,Clear,130,2013-10-11 20:55:00
4:15 PM,76.5,52.0,42,30.00,10.0,SE,10.4,-,N/A,,Clear,140,2013-10-11 21:15:00
4:35 PM,76.1,52.0,43,29.99,10.0,SE,10.4,17.3,N/A,,Clear,140,2013-10-11 21:35:00
4:55 PM,75.6,52.0,44,29.99,10.0,SE,9.2,-,N/A,,Clear,140,2013-10-11 21:55:00
5:15 PM,74.7,52.3,46,29.99,10.0,SSE,5.8,-,N/A,,Clear,160,2013-10-11 22:15:00
5:35 PM,73.6,52.2,47,29.99,10.0,SSE,5.8,-,N/A,,Clear,150,2013-10-11 22:35:00
5:55 PM,72.0,52.0,49,29.99,10.0,SSE,6.9,-,N/A,,Clear,150,2013-10-11 22:55:00
6:15 PM,69.8,52.0,53,29.99,10.0,SE,5.8,-,N/A,,Clear,140,2013-10-11 23:15:00
6:35 PM,68.7,51.6,54,29.98,10.0,SE,4.6,-,N/A,,Clear,130,2013-10-11 23:35:00
6:55 PM,66.7,51.4,58,29.98,10.0,SE,4.6,-,N/A,,Clear,130,2013-10-11 23:55:00
7:15 PM,66.4,51.3,58,29.99,10.0,SE,4.6,-,N/A,,Clear,140,2013-10-12 00:15:00
7:35 PM,65.3,51.3,60,29.99,10.0,SE,5.8,-,N/A,,Clear,140,2013-10-12 00:35:00
7:55 PM,61.7,51.1,68,29.99,10.0,ESE,5.8,-,N/A,,Clear,120,2013-10-12 00:55:00
8:15 PM,62.6,51.1,66,29.99,10.0,SE,4.6,-,N/A,,Clear,130,2013-10-12 01:15:00
8:35 PM,60.6,50.7,70,29.99,10.0,SE,3.5,-,N/A,,Clear,130,2013-10-12 01:35:00
8:55 PM,57.4,50.2,77,30.00,10.0,ESE,3.5,-,N/A,,Clear,110,2013-10-12 01:55:00
9:15 PM,56.5,50.2,79,30.01,10.0,ESE,3.5,-,N/A,,Clear,120,2013-10-12 02:15:00
9:35 PM,56.3,50.4,80,30.01,10.0,ESE,4.6,-,N/A,,Clear,120,2013-10-12 02:35:00
9:55 PM,58.3,50.9,76,30.01,10.0,SE,4.6,-,N/A,,Clear,130,2013-10-12 02:55:00
10:15 PM,57.6,50.7,78,30.01,10.0,SE,5.8,-,N/A,,Clear,130,2013-10-12 03:15:00
10:35 PM,59.5,51.4,75,30.02,10.0,SE,6.9,-,N/A,,Clear,140,2013-10-12 03:35:00
10:55 PM,59.9,51.8,75,30.02,10.0,SSE,6.9,-,N/A,,Clear,150,2013-10-12 03:55:00
11:15 PM,60.3,51.8,74,30.02,10.0,SE,6.9,-,N/A,,Clear,140,2013-10-12 04:15:00
11:35 PM,59.9,51.8,75,30.02,10.0,SE,5.8,-,N/A,,Clear,140,2013-10-12 04:35:00
11:55 PM,59.4,51.8,76,30.01,10.0,SE,5.8,-,N/A,,Clear,130,2013-10-12 04:55:00